sensor_id;sensor_type;location;lat;lon;timestamp;P1;durP1;ratioP1;P2;durP2;ratioP2
8232;SDS011;4157;48.074;9.952;2023-02-23T00:01:12;23.90;;;17.50;;
8232;SDS011;4157;48.074;9.952;2023-02-23T00:03:41;20.25;;;16.38;;
8232;SDS011;4157;48.074;9.952;2023-02-23T00:06:10;20.25;;;15.88;;
8232;SDS011;4157;48.074;9.952;2023-02-23T00:08:39;19.30;;;15.48;;
8232;SDS011;4157;48.074;9.952;2023-02-23T00:11:07;18.88;;;16.02;;
8232;SDS011;4157;48.074;9.952;2023-02-23T00:13:37;17.83;;;14.70;;
8232;SDS011;4157;48.074;9.952;2023-02-23T00:16:05;20.25;;;16.08;;
8232;SDS011;4157;48.074;9.952;2023-02-23T00:18:34;20.35;;;15.95;;
8232;SDS011;4157;48.074;9.952;2023-02-23T00:21:10;18.73;;;15.27;;
8232;SDS011;4157;48.074;9.952;2023-02-23T00:23:40;20.35;;;15.23;;
8232;SDS011;4157;48.074;9.952;2023-02-23T00:26:08;22.00;;;17.05;;
8232;SDS011;4157;48.074;9.952;2023-02-23T00:28:39;19.67;;;15.35;;
8232;SDS011;4157;48.074;9.952;2023-02-23T00:31:08;21.65;;;16.52;;
8232;SDS011;4157;48.074;9.952;2023-02-23T00:33:38;21.90;;;17.40;;
8232;SDS011;4157;48.074;9.952;2023-02-23T00:36:08;19.05;;;15.52;;
8232;SDS011;4157;48.074;9.952;2023-02-23T00:38:36;22.17;;;16.50;;
8232;SDS011;4157;48.074;9.952;2023-02-23T00:41:05;20.92;;;17.20;;
8232;SDS011;4157;48.074;9.952;2023-02-23T00:43:33;19.52;;;15.85;;
8232;SDS011;4157;48.074;9.952;2023-02-23T00:46:01;20.67;;;16.48;;
8232;SDS011;4157;48.074;9.952;2023-02-23T00:48:31;20.25;;;17.20;;
8232;SDS011;4157;48.074;9.952;2023-02-23T00:51:01;24.05;;;16.45;;
8232;SDS011;4157;48.074;9.952;2023-02-23T00:53:29;20.30;;;15.68;;
8232;SDS011;4157;48.074;9.952;2023-02-23T00:55:56;22.35;;;15.98;;
8232;SDS011;4157;48.074;9.952;2023-02-23T00:58:24;20.45;;;16.50;;
8232;SDS011;4157;48.074;9.952;2023-02-23T01:00:52;21.60;;;16.50;;
8232;SDS011;4157;48.074;9.952;2023-02-23T01:03:21;20.75;;;16.02;;
8232;SDS011;4157;48.074;9.952;2023-02-23T01:05:48;19.65;;;16.00;;
8232;SDS011;4157;48.074;9.952;2023-02-23T01:08:17;20.67;;;16.55;;
8232;SDS011;4157;48.074;9.952;2023-02-23T01:10:46;22.42;;;15.70;;
8232;SDS011;4157;48.074;9.952;2023-02-23T01:13:18;21.48;;;15.15;;
8232;SDS011;4157;48.074;9.952;2023-02-23T01:15:46;21.52;;;16.45;;
8232;SDS011;4157;48.074;9.952;2023-02-23T01:18:14;22.40;;;17.42;;
8232;SDS011;4157;48.074;9.952;2023-02-23T01:20:42;22.67;;;17.52;;
8232;SDS011;4157;48.074;9.952;2023-02-23T01:23:10;19.30;;;15.07;;
8232;SDS011;4157;48.074;9.952;2023-02-23T01:25:40;19.80;;;15.90;;
8232;SDS011;4157;48.074;9.952;2023-02-23T01:28:08;22.50;;;16.48;;
8232;SDS011;4157;48.074;9.952;2023-02-23T01:30:37;20.73;;;16.40;;
8232;SDS011;4157;48.074;9.952;2023-02-23T01:33:06;23.40;;;16.98;;
8232;SDS011;4157;48.074;9.952;2023-02-23T01:35:34;26.88;;;18.52;;
8232;SDS011;4157;48.074;9.952;2023-02-23T01:38:02;20.63;;;17.20;;
8232;SDS011;4157;48.074;9.952;2023-02-23T01:40:30;20.73;;;16.48;;
8232;SDS011;4157;48.074;9.952;2023-02-23T01:43:10;22.60;;;17.20;;
8232;SDS011;4157;48.074;9.952;2023-02-23T01:45:39;20.92;;;17.60;;
8232;SDS011;4157;48.074;9.952;2023-02-23T01:48:07;24.92;;;17.35;;
8232;SDS011;4157;48.074;9.952;2023-02-23T01:50:44;22.92;;;18.45;;
8232;SDS011;4157;48.074;9.952;2023-02-23T01:53:13;22.40;;;18.23;;
8232;SDS011;4157;48.074;9.952;2023-02-23T01:55:41;23.13;;;19.42;;
8232;SDS011;4157;48.074;9.952;2023-02-23T01:58:11;22.88;;;18.88;;
8232;SDS011;4157;48.074;9.952;2023-02-23T02:00:42;24.30;;;18.48;;
8232;SDS011;4157;48.074;9.952;2023-02-23T02:03:11;27.00;;;20.17;;
8232;SDS011;4157;48.074;9.952;2023-02-23T02:05:41;25.10;;;19.75;;
8232;SDS011;4157;48.074;9.952;2023-02-23T02:08:10;25.50;;;19.98;;
8232;SDS011;4157;48.074;9.952;2023-02-23T02:10:38;25.80;;;19.05;;
8232;SDS011;4157;48.074;9.952;2023-02-23T02:13:10;25.13;;;20.52;;
8232;SDS011;4157;48.074;9.952;2023-02-23T02:15:48;29.25;;;21.90;;
8232;SDS011;4157;48.074;9.952;2023-02-23T02:18:21;26.40;;;20.33;;
8232;SDS011;4157;48.074;9.952;2023-02-23T02:21:01;25.23;;;20.80;;
8232;SDS011;4157;48.074;9.952;2023-02-23T02:26:30;27.58;;;22.27;;
8232;SDS011;4157;48.074;9.952;2023-02-23T02:31:57;27.55;;;22.75;;
8232;SDS011;4157;48.074;9.952;2023-02-23T02:34:35;28.52;;;24.35;;
8232;SDS011;4157;48.074;9.952;2023-02-23T02:39:53;32.03;;;23.13;;
8232;SDS011;4157;48.074;9.952;2023-02-23T02:42:43;28.85;;;22.95;;
8232;SDS011;4157;48.074;9.952;2023-02-23T02:45:13;31.58;;;25.73;;
8232;SDS011;4157;48.074;9.952;2023-02-23T02:47:45;30.60;;;24.98;;
8232;SDS011;4157;48.074;9.952;2023-02-23T02:50:16;34.45;;;26.83;;
8232;SDS011;4157;48.074;9.952;2023-02-23T02:52:47;31.48;;;24.33;;
8232;SDS011;4157;48.074;9.952;2023-02-23T02:55:20;29.45;;;24.20;;
8232;SDS011;4157;48.074;9.952;2023-02-23T02:57:50;34.40;;;25.15;;
8232;SDS011;4157;48.074;9.952;2023-02-23T03:00:19;31.08;;;24.92;;
8232;SDS011;4157;48.074;9.952;2023-02-23T03:03:07;28.05;;;23.58;;
8232;SDS011;4157;48.074;9.952;2023-02-23T03:05:55;30.25;;;24.20;;
8232;SDS011;4157;48.074;9.952;2023-02-23T03:08:42;27.80;;;23.42;;
8232;SDS011;4157;48.074;9.952;2023-02-23T03:11:36;30.35;;;24.17;;
8232;SDS011;4157;48.074;9.952;2023-02-23T03:14:25;29.73;;;23.92;;
8232;SDS011;4157;48.074;9.952;2023-02-23T03:17:13;28.48;;;23.13;;
8232;SDS011;4157;48.074;9.952;2023-02-23T03:20:02;28.33;;;23.48;;
8232;SDS011;4157;48.074;9.952;2023-02-23T03:22:52;32.90;;;24.60;;
8232;SDS011;4157;48.074;9.952;2023-02-23T03:25:44;28.08;;;22.52;;
8232;SDS011;4157;48.074;9.952;2023-02-23T03:28:33;27.80;;;22.15;;
8232;SDS011;4157;48.074;9.952;2023-02-23T03:31:21;27.90;;;22.05;;
8232;SDS011;4157;48.074;9.952;2023-02-23T03:34:11;25.73;;;21.50;;
8232;SDS011;4157;48.074;9.952;2023-02-23T03:37:00;25.98;;;21.98;;
8232;SDS011;4157;48.074;9.952;2023-02-23T03:39:49;27.30;;;20.92;;
8232;SDS011;4157;48.074;9.952;2023-02-23T03:42:36;27.70;;;22.52;;
8232;SDS011;4157;48.074;9.952;2023-02-23T03:45:24;28.23;;;22.13;;
8232;SDS011;4157;48.074;9.952;2023-02-23T03:48:11;27.63;;;21.17;;
8232;SDS011;4157;48.074;9.952;2023-02-23T03:50:57;26.23;;;22.33;;
8232;SDS011;4157;48.074;9.952;2023-02-23T03:53:46;27.80;;;21.15;;
8232;SDS011;4157;48.074;9.952;2023-02-23T03:56:35;27.65;;;21.13;;
8232;SDS011;4157;48.074;9.952;2023-02-23T03:59:24;24.08;;;19.10;;
8232;SDS011;4157;48.074;9.952;2023-02-23T04:02:12;27.08;;;20.52;;
8232;SDS011;4157;48.074;9.952;2023-02-23T04:04:58;27.27;;;21.95;;
8232;SDS011;4157;48.074;9.952;2023-02-23T04:07:45;25.85;;;20.58;;
8232;SDS011;4157;48.074;9.952;2023-02-23T04:10:31;25.52;;;20.63;;
8232;SDS011;4157;48.074;9.952;2023-02-23T04:13:19;24.65;;;20.35;;
8232;SDS011;4157;48.074;9.952;2023-02-23T04:15:47;27.45;;;21.50;;
8232;SDS011;4157;48.074;9.952;2023-02-23T04:18:16;28.13;;;21.27;;
8232;SDS011;4157;48.074;9.952;2023-02-23T04:20:44;25.05;;;20.63;;
8232;SDS011;4157;48.074;9.952;2023-02-23T04:23:12;26.58;;;20.88;;
8232;SDS011;4157;48.074;9.952;2023-02-23T04:25:40;26.80;;;20.52;;
8232;SDS011;4157;48.074;9.952;2023-02-23T04:28:07;28.05;;;21.02;;
8232;SDS011;4157;48.074;9.952;2023-02-23T04:30:35;27.08;;;21.33;;
8232;SDS011;4157;48.074;9.952;2023-02-23T04:33:03;29.15;;;21.67;;
8232;SDS011;4157;48.074;9.952;2023-02-23T04:35:32;29.58;;;21.05;;
8232;SDS011;4157;48.074;9.952;2023-02-23T04:37:59;25.80;;;19.67;;
8232;SDS011;4157;48.074;9.952;2023-02-23T04:40:27;26.17;;;21.13;;
8232;SDS011;4157;48.074;9.952;2023-02-23T04:42:55;27.25;;;20.27;;
8232;SDS011;4157;48.074;9.952;2023-02-23T04:45:23;26.13;;;19.75;;
8232;SDS011;4157;48.074;9.952;2023-02-23T04:47:51;25.42;;;20.40;;
8232;SDS011;4157;48.074;9.952;2023-02-23T04:50:19;25.52;;;21.00;;
8232;SDS011;4157;48.074;9.952;2023-02-23T04:52:48;26.48;;;20.05;;
8232;SDS011;4157;48.074;9.952;2023-02-23T04:55:18;26.33;;;20.05;;
8232;SDS011;4157;48.074;9.952;2023-02-23T04:57:46;25.08;;;19.83;;
8232;SDS011;4157;48.074;9.952;2023-02-23T05:00:14;25.13;;;19.55;;
8232;SDS011;4157;48.074;9.952;2023-02-23T05:02:42;26.95;;;20.02;;
8232;SDS011;4157;48.074;9.952;2023-02-23T05:05:10;25.08;;;20.40;;
8232;SDS011;4157;48.074;9.952;2023-02-23T05:07:38;27.60;;;19.25;;
8232;SDS011;4157;48.074;9.952;2023-02-23T05:10:07;24.00;;;18.88;;
8232;SDS011;4157;48.074;9.952;2023-02-23T05:12:35;24.05;;;19.63;;
8232;SDS011;4157;48.074;9.952;2023-02-23T05:15:03;25.30;;;19.25;;
8232;SDS011;4157;48.074;9.952;2023-02-23T05:17:31;25.40;;;18.73;;
8232;SDS011;4157;48.074;9.952;2023-02-23T05:19:59;24.52;;;19.52;;
8232;SDS011;4157;48.074;9.952;2023-02-23T05:22:26;23.95;;;18.30;;
8232;SDS011;4157;48.074;9.952;2023-02-23T05:24:54;23.23;;;19.17;;
8232;SDS011;4157;48.074;9.952;2023-02-23T05:27:23;22.08;;;17.05;;
8232;SDS011;4157;48.074;9.952;2023-02-23T05:29:51;23.23;;;17.77;;
8232;SDS011;4157;48.074;9.952;2023-02-23T05:32:18;24.98;;;19.85;;
8232;SDS011;4157;48.074;9.952;2023-02-23T05:34:46;22.38;;;18.40;;
8232;SDS011;4157;48.074;9.952;2023-02-23T05:37:14;22.55;;;18.90;;
8232;SDS011;4157;48.074;9.952;2023-02-23T05:39:41;23.98;;;19.38;;
8232;SDS011;4157;48.074;9.952;2023-02-23T05:42:09;20.65;;;17.08;;
8232;SDS011;4157;48.074;9.952;2023-02-23T05:44:38;24.15;;;18.88;;
8232;SDS011;4157;48.074;9.952;2023-02-23T05:47:06;24.13;;;18.90;;
8232;SDS011;4157;48.074;9.952;2023-02-23T05:49:33;23.33;;;19.15;;
8232;SDS011;4157;48.074;9.952;2023-02-23T05:52:01;21.42;;;17.88;;
8232;SDS011;4157;48.074;9.952;2023-02-23T05:54:28;20.98;;;16.88;;
8232;SDS011;4157;48.074;9.952;2023-02-23T05:56:56;20.92;;;17.20;;
8232;SDS011;4157;48.074;9.952;2023-02-23T05:59:24;22.80;;;18.00;;
8232;SDS011;4157;48.074;9.952;2023-02-23T06:01:53;23.02;;;17.95;;
8232;SDS011;4157;48.074;9.952;2023-02-23T06:04:20;20.05;;;17.15;;
8232;SDS011;4157;48.074;9.952;2023-02-23T06:06:49;21.23;;;17.85;;
8232;SDS011;4157;48.074;9.952;2023-02-23T06:09:16;20.60;;;17.70;;
8232;SDS011;4157;48.074;9.952;2023-02-23T06:11:44;21.48;;;17.20;;
8232;SDS011;4157;48.074;9.952;2023-02-23T06:14:12;21.35;;;17.63;;
8232;SDS011;4157;48.074;9.952;2023-02-23T06:16:40;20.48;;;17.33;;
8232;SDS011;4157;48.074;9.952;2023-02-23T06:19:11;23.52;;;18.33;;
8232;SDS011;4157;48.074;9.952;2023-02-23T06:21:38;20.08;;;17.00;;
8232;SDS011;4157;48.074;9.952;2023-02-23T06:24:06;20.80;;;17.50;;
8232;SDS011;4157;48.074;9.952;2023-02-23T06:26:34;19.35;;;16.88;;
8232;SDS011;4157;48.074;9.952;2023-02-23T06:29:01;22.27;;;18.38;;
8232;SDS011;4157;48.074;9.952;2023-02-23T06:31:29;22.15;;;17.92;;
8232;SDS011;4157;48.074;9.952;2023-02-23T06:33:57;22.08;;;18.05;;
8232;SDS011;4157;48.074;9.952;2023-02-23T06:36:26;21.88;;;18.20;;
8232;SDS011;4157;48.074;9.952;2023-02-23T06:38:54;22.67;;;19.08;;
8232;SDS011;4157;48.074;9.952;2023-02-23T06:41:22;21.10;;;16.27;;
8232;SDS011;4157;48.074;9.952;2023-02-23T06:43:50;19.48;;;16.58;;
8232;SDS011;4157;48.074;9.952;2023-02-23T06:46:18;19.15;;;16.73;;
8232;SDS011;4157;48.074;9.952;2023-02-23T06:48:46;18.95;;;16.23;;
8232;SDS011;4157;48.074;9.952;2023-02-23T06:51:14;17.38;;;15.32;;
8232;SDS011;4157;48.074;9.952;2023-02-23T06:53:43;21.58;;;16.67;;
8232;SDS011;4157;48.074;9.952;2023-02-23T06:56:11;19.50;;;16.45;;
8232;SDS011;4157;48.074;9.952;2023-02-23T06:58:38;17.88;;;14.60;;
8232;SDS011;4157;48.074;9.952;2023-02-23T07:01:07;17.23;;;14.13;;
8232;SDS011;4157;48.074;9.952;2023-02-23T07:03:37;19.10;;;15.23;;
8232;SDS011;4157;48.074;9.952;2023-02-23T07:06:05;18.48;;;15.45;;
8232;SDS011;4157;48.074;9.952;2023-02-23T07:08:32;20.80;;;15.52;;
8232;SDS011;4157;48.074;9.952;2023-02-23T07:11:06;17.98;;;15.43;;
8232;SDS011;4157;48.074;9.952;2023-02-23T07:13:33;18.88;;;15.43;;
8232;SDS011;4157;48.074;9.952;2023-02-23T07:16:01;17.38;;;15.20;;
8232;SDS011;4157;48.074;9.952;2023-02-23T07:18:29;52.88;;;44.22;;
8232;SDS011;4157;48.074;9.952;2023-02-23T07:20:57;26.63;;;21.67;;
8232;SDS011;4157;48.074;9.952;2023-02-23T07:23:24;20.88;;;16.50;;
8232;SDS011;4157;48.074;9.952;2023-02-23T07:25:53;18.38;;;14.95;;
8232;SDS011;4157;48.074;9.952;2023-02-23T07:28:22;31.25;;;23.77;;
8232;SDS011;4157;48.074;9.952;2023-02-23T07:30:53;21.95;;;18.60;;
8232;SDS011;4157;48.074;9.952;2023-02-23T07:33:21;20.85;;;16.75;;
8232;SDS011;4157;48.074;9.952;2023-02-23T07:35:49;20.77;;;15.60;;
8232;SDS011;4157;48.074;9.952;2023-02-23T07:38:17;20.15;;;16.98;;
8232;SDS011;4157;48.074;9.952;2023-02-23T07:40:44;19.63;;;15.90;;
8232;SDS011;4157;48.074;9.952;2023-02-23T07:43:12;20.55;;;16.42;;
8232;SDS011;4157;48.074;9.952;2023-02-23T07:45:41;18.60;;;15.88;;
8232;SDS011;4157;48.074;9.952;2023-02-23T07:48:09;20.08;;;16.52;;
8232;SDS011;4157;48.074;9.952;2023-02-23T07:50:38;18.70;;;14.77;;
8232;SDS011;4157;48.074;9.952;2023-02-23T07:53:05;25.00;;;19.95;;
8232;SDS011;4157;48.074;9.952;2023-02-23T07:55:33;20.35;;;17.20;;
8232;SDS011;4157;48.074;9.952;2023-02-23T07:58:03;17.98;;;15.20;;
8232;SDS011;4157;48.074;9.952;2023-02-23T08:00:30;20.50;;;18.25;;
8232;SDS011;4157;48.074;9.952;2023-02-23T08:03:00;21.23;;;17.02;;
8232;SDS011;4157;48.074;9.952;2023-02-23T08:05:27;19.70;;;15.50;;
8232;SDS011;4157;48.074;9.952;2023-02-23T08:07:56;21.05;;;15.75;;
8232;SDS011;4157;48.074;9.952;2023-02-23T08:10:23;27.40;;;21.05;;
8232;SDS011;4157;48.074;9.952;2023-02-23T08:12:51;18.20;;;15.70;;
8232;SDS011;4157;48.074;9.952;2023-02-23T08:15:19;19.10;;;15.70;;
8232;SDS011;4157;48.074;9.952;2023-02-23T08:17:47;19.33;;;14.90;;
8232;SDS011;4157;48.074;9.952;2023-02-23T08:20:16;16.38;;;14.40;;
8232;SDS011;4157;48.074;9.952;2023-02-23T08:22:44;16.05;;;13.65;;
8232;SDS011;4157;48.074;9.952;2023-02-23T08:25:11;18.17;;;14.68;;
8232;SDS011;4157;48.074;9.952;2023-02-23T08:27:39;17.60;;;14.98;;
8232;SDS011;4157;48.074;9.952;2023-02-23T08:30:07;20.35;;;17.02;;
8232;SDS011;4157;48.074;9.952;2023-02-23T08:32:35;25.33;;;21.83;;
8232;SDS011;4157;48.074;9.952;2023-02-23T08:35:03;21.30;;;17.77;;
8232;SDS011;4157;48.074;9.952;2023-02-23T08:37:32;16.55;;;13.32;;
8232;SDS011;4157;48.074;9.952;2023-02-23T08:40:00;16.30;;;13.10;;
8232;SDS011;4157;48.074;9.952;2023-02-23T08:42:28;18.00;;;13.70;;
8232;SDS011;4157;48.074;9.952;2023-02-23T08:44:55;18.20;;;13.40;;
8232;SDS011;4157;48.074;9.952;2023-02-23T08:47:23;17.55;;;13.13;;
8232;SDS011;4157;48.074;9.952;2023-02-23T08:49:51;16.63;;;14.15;;
8232;SDS011;4157;48.074;9.952;2023-02-23T08:52:20;18.23;;;14.50;;
8232;SDS011;4157;48.074;9.952;2023-02-23T08:54:49;16.25;;;14.23;;
8232;SDS011;4157;48.074;9.952;2023-02-23T08:57:17;17.48;;;13.70;;
8232;SDS011;4157;48.074;9.952;2023-02-23T08:59:45;17.30;;;14.02;;
8232;SDS011;4157;48.074;9.952;2023-02-23T09:02:13;16.98;;;14.07;;
8232;SDS011;4157;48.074;9.952;2023-02-23T09:04:40;19.52;;;15.07;;
8232;SDS011;4157;48.074;9.952;2023-02-23T09:07:09;18.67;;;13.23;;
8232;SDS011;4157;48.074;9.952;2023-02-23T09:09:39;20.33;;;13.90;;
8232;SDS011;4157;48.074;9.952;2023-02-23T09:12:08;17.08;;;13.35;;
8232;SDS011;4157;48.074;9.952;2023-02-23T09:14:36;17.13;;;13.48;;
8232;SDS011;4157;48.074;9.952;2023-02-23T09:17:05;16.35;;;12.50;;
8232;SDS011;4157;48.074;9.952;2023-02-23T09:19:32;16.80;;;13.35;;
8232;SDS011;4157;48.074;9.952;2023-02-23T09:22:00;17.55;;;14.43;;
8232;SDS011;4157;48.074;9.952;2023-02-23T09:24:27;20.60;;;15.63;;
8232;SDS011;4157;48.074;9.952;2023-02-23T09:26:55;16.75;;;13.93;;
8232;SDS011;4157;48.074;9.952;2023-02-23T09:29:26;15.07;;;12.40;;
8232;SDS011;4157;48.074;9.952;2023-02-23T09:31:53;17.40;;;13.20;;
8232;SDS011;4157;48.074;9.952;2023-02-23T09:34:22;18.33;;;13.13;;
8232;SDS011;4157;48.074;9.952;2023-02-23T09:36:50;15.40;;;12.13;;
8232;SDS011;4157;48.074;9.952;2023-02-23T09:39:20;16.17;;;11.98;;
8232;SDS011;4157;48.074;9.952;2023-02-23T09:41:49;14.75;;;11.65;;
8232;SDS011;4157;48.074;9.952;2023-02-23T09:44:22;15.20;;;12.13;;
8232;SDS011;4157;48.074;9.952;2023-02-23T09:47:00;14.75;;;10.27;;
8232;SDS011;4157;48.074;9.952;2023-02-23T09:49:31;16.08;;;11.48;;
8232;SDS011;4157;48.074;9.952;2023-02-23T09:52:00;14.35;;;10.95;;
8232;SDS011;4157;48.074;9.952;2023-02-23T09:54:30;15.07;;;10.88;;
8232;SDS011;4157;48.074;9.952;2023-02-23T09:56:59;15.48;;;10.73;;
8232;SDS011;4157;48.074;9.952;2023-02-23T09:59:28;14.73;;;11.65;;
8232;SDS011;4157;48.074;9.952;2023-02-23T10:01:59;14.48;;;11.52;;
8232;SDS011;4157;48.074;9.952;2023-02-23T10:04:30;13.90;;;10.65;;
8232;SDS011;4157;48.074;9.952;2023-02-23T10:07:02;14.60;;;10.68;;
8232;SDS011;4157;48.074;9.952;2023-02-23T10:09:37;18.00;;;11.02;;
8232;SDS011;4157;48.074;9.952;2023-02-23T10:12:09;16.40;;;11.13;;
8232;SDS011;4157;48.074;9.952;2023-02-23T10:14:44;13.90;;;9.32;;
8232;SDS011;4157;48.074;9.952;2023-02-23T10:17:21;14.60;;;10.25;;
8232;SDS011;4157;48.074;9.952;2023-02-23T10:19:52;19.67;;;12.77;;
8232;SDS011;4157;48.074;9.952;2023-02-23T10:22:23;21.73;;;16.67;;
8232;SDS011;4157;48.074;9.952;2023-02-23T10:24:53;12.60;;;8.90;;
8232;SDS011;4157;48.074;9.952;2023-02-23T10:27:23;16.38;;;10.20;;
8232;SDS011;4157;48.074;9.952;2023-02-23T10:29:53;26.33;;;17.60;;
8232;SDS011;4157;48.074;9.952;2023-02-23T10:32:23;12.95;;;7.35;;
8232;SDS011;4157;48.074;9.952;2023-02-23T10:34:52;11.40;;;6.50;;
8232;SDS011;4157;48.074;9.952;2023-02-23T10:37:21;12.05;;;6.38;;
8232;SDS011;4157;48.074;9.952;2023-02-23T10:39:49;18.00;;;11.73;;
8232;SDS011;4157;48.074;9.952;2023-02-23T10:42:19;14.07;;;7.70;;
8232;SDS011;4157;48.074;9.952;2023-02-23T10:44:48;13.35;;;6.03;;
8232;SDS011;4157;48.074;9.952;2023-02-23T10:47:17;13.40;;;6.55;;
8232;SDS011;4157;48.074;9.952;2023-02-23T10:49:47;10.32;;;5.38;;
8232;SDS011;4157;48.074;9.952;2023-02-23T10:52:16;12.18;;;4.60;;
8232;SDS011;4157;48.074;9.952;2023-02-23T10:54:45;11.13;;;5.28;;
8232;SDS011;4157;48.074;9.952;2023-02-23T10:57:21;10.75;;;5.05;;
8232;SDS011;4157;48.074;9.952;2023-02-23T11:00:00;10.02;;;4.60;;
8232;SDS011;4157;48.074;9.952;2023-02-23T11:02:29;11.07;;;4.53;;
8232;SDS011;4157;48.074;9.952;2023-02-23T11:04:59;11.05;;;5.60;;
8232;SDS011;4157;48.074;9.952;2023-02-23T11:07:27;10.98;;;4.55;;
8232;SDS011;4157;48.074;9.952;2023-02-23T11:09:55;11.05;;;4.63;;
8232;SDS011;4157;48.074;9.952;2023-02-23T11:12:24;12.93;;;5.05;;
8232;SDS011;4157;48.074;9.952;2023-02-23T11:14:54;11.60;;;4.90;;
8232;SDS011;4157;48.074;9.952;2023-02-23T11:17:23;11.40;;;4.68;;
8232;SDS011;4157;48.074;9.952;2023-02-23T11:19:56;8.43;;;4.10;;
8232;SDS011;4157;48.074;9.952;2023-02-23T11:22:25;12.55;;;5.30;;
8232;SDS011;4157;48.074;9.952;2023-02-23T11:24:56;9.10;;;4.20;;
8232;SDS011;4157;48.074;9.952;2023-02-23T11:27:24;9.10;;;5.07;;
8232;SDS011;4157;48.074;9.952;2023-02-23T11:29:54;9.38;;;3.95;;
8232;SDS011;4157;48.074;9.952;2023-02-23T11:32:22;9.73;;;4.20;;
8232;SDS011;4157;48.074;9.952;2023-02-23T11:37:36;8.63;;;3.88;;
8232;SDS011;4157;48.074;9.952;2023-02-23T11:40:16;12.57;;;5.10;;
8232;SDS011;4157;48.074;9.952;2023-02-23T11:42:49;13.50;;;4.18;;
8232;SDS011;4157;48.074;9.952;2023-02-23T11:45:18;9.32;;;4.35;;
8232;SDS011;4157;48.074;9.952;2023-02-23T11:47:47;9.25;;;4.15;;
8232;SDS011;4157;48.074;9.952;2023-02-23T11:50:25;11.02;;;4.15;;
8232;SDS011;4157;48.074;9.952;2023-02-23T11:52:56;15.73;;;4.32;;
8232;SDS011;4157;48.074;9.952;2023-02-23T11:55:26;9.90;;;3.97;;
8232;SDS011;4157;48.074;9.952;2023-02-23T11:58:06;10.25;;;4.13;;
8232;SDS011;4157;48.074;9.952;2023-02-23T12:00:34;9.20;;;4.10;;
8232;SDS011;4157;48.074;9.952;2023-02-23T12:03:02;10.50;;;4.20;;
8232;SDS011;4157;48.074;9.952;2023-02-23T12:05:31;9.48;;;4.13;;
8232;SDS011;4157;48.074;9.952;2023-02-23T12:08:02;12.25;;;4.57;;
8232;SDS011;4157;48.074;9.952;2023-02-23T12:10:31;11.13;;;4.35;;
8232;SDS011;4157;48.074;9.952;2023-02-23T12:13:02;13.38;;;5.22;;
8232;SDS011;4157;48.074;9.952;2023-02-23T12:15:34;13.52;;;4.97;;
8232;SDS011;4157;48.074;9.952;2023-02-23T12:18:03;10.55;;;4.68;;
8232;SDS011;4157;48.074;9.952;2023-02-23T12:20:36;10.85;;;5.55;;
8232;SDS011;4157;48.074;9.952;2023-02-23T12:23:08;11.63;;;5.93;;
8232;SDS011;4157;48.074;9.952;2023-02-23T12:25:37;9.27;;;5.00;;
8232;SDS011;4157;48.074;9.952;2023-02-23T12:28:09;12.25;;;5.10;;
8232;SDS011;4157;48.074;9.952;2023-02-23T12:30:39;13.52;;;5.65;;
8232;SDS011;4157;48.074;9.952;2023-02-23T12:33:09;16.00;;;6.13;;
8232;SDS011;4157;48.074;9.952;2023-02-23T12:35:40;10.60;;;4.90;;
8232;SDS011;4157;48.074;9.952;2023-02-23T12:38:11;13.93;;;5.40;;
8232;SDS011;4157;48.074;9.952;2023-02-23T12:40:40;8.55;;;4.72;;
8232;SDS011;4157;48.074;9.952;2023-02-23T12:43:10;10.25;;;4.15;;
8232;SDS011;4157;48.074;9.952;2023-02-23T12:45:40;11.65;;;4.10;;
8232;SDS011;4157;48.074;9.952;2023-02-23T12:48:12;8.15;;;3.75;;
8232;SDS011;4157;48.074;9.952;2023-02-23T12:50:41;9.40;;;4.38;;
8232;SDS011;4157;48.074;9.952;2023-02-23T12:53:17;12.60;;;4.80;;
8232;SDS011;4157;48.074;9.952;2023-02-23T12:55:49;15.85;;;4.97;;
8232;SDS011;4157;48.074;9.952;2023-02-23T12:58:19;9.93;;;5.57;;
8232;SDS011;4157;48.074;9.952;2023-02-23T13:00:54;12.15;;;5.63;;
8232;SDS011;4157;48.074;9.952;2023-02-23T13:05:51;10.25;;;4.70;;
8232;SDS011;4157;48.074;9.952;2023-02-23T13:08:24;10.65;;;5.05;;
8232;SDS011;4157;48.074;9.952;2023-02-23T13:10:56;12.93;;;5.88;;
8232;SDS011;4157;48.074;9.952;2023-02-23T13:13:30;12.52;;;5.22;;
8232;SDS011;4157;48.074;9.952;2023-02-23T13:16:00;10.07;;;5.40;;
8232;SDS011;4157;48.074;9.952;2023-02-23T13:18:31;9.35;;;5.00;;
8232;SDS011;4157;48.074;9.952;2023-02-23T13:21:01;11.38;;;5.80;;
8232;SDS011;4157;48.074;9.952;2023-02-23T13:23:33;18.73;;;11.20;;
8232;SDS011;4157;48.074;9.952;2023-02-23T13:26:05;14.15;;;7.45;;
8232;SDS011;4157;48.074;9.952;2023-02-23T13:28:39;15.55;;;7.28;;
8232;SDS011;4157;48.074;9.952;2023-02-23T13:31:12;15.63;;;9.77;;
8232;SDS011;4157;48.074;9.952;2023-02-23T13:33:45;15.73;;;9.95;;
8232;SDS011;4157;48.074;9.952;2023-02-23T13:36:14;9.38;;;4.85;;
8232;SDS011;4157;48.074;9.952;2023-02-23T13:38:45;18.40;;;13.85;;
8232;SDS011;4157;48.074;9.952;2023-02-23T13:41:23;16.50;;;10.52;;
8232;SDS011;4157;48.074;9.952;2023-02-23T13:43:54;8.60;;;5.15;;
8232;SDS011;4157;48.074;9.952;2023-02-23T13:46:26;10.35;;;6.60;;
8232;SDS011;4157;48.074;9.952;2023-02-23T13:48:55;12.88;;;7.45;;
8232;SDS011;4157;48.074;9.952;2023-02-23T13:51:27;11.27;;;4.57;;
8232;SDS011;4157;48.074;9.952;2023-02-23T13:53:59;9.80;;;5.22;;
8232;SDS011;4157;48.074;9.952;2023-02-23T13:56:28;8.60;;;5.43;;
8232;SDS011;4157;48.074;9.952;2023-02-23T13:58:58;10.15;;;4.95;;
8232;SDS011;4157;48.074;9.952;2023-02-23T14:01:28;10.93;;;5.13;;
8232;SDS011;4157;48.074;9.952;2023-02-23T14:03:57;16.73;;;10.35;;
8232;SDS011;4157;48.074;9.952;2023-02-23T14:06:25;11.23;;;5.40;;
8232;SDS011;4157;48.074;9.952;2023-02-23T14:08:54;12.35;;;5.22;;
8232;SDS011;4157;48.074;9.952;2023-02-23T14:11:33;10.60;;;5.75;;
8232;SDS011;4157;48.074;9.952;2023-02-23T14:14:02;10.55;;;5.30;;
8232;SDS011;4157;48.074;9.952;2023-02-23T14:16:30;10.57;;;5.35;;
8232;SDS011;4157;48.074;9.952;2023-02-23T14:19:05;10.57;;;5.50;;
8232;SDS011;4157;48.074;9.952;2023-02-23T14:21:34;11.65;;;5.20;;
8232;SDS011;4157;48.074;9.952;2023-02-23T14:24:10;14.80;;;6.07;;
8232;SDS011;4157;48.074;9.952;2023-02-23T14:26:42;8.82;;;5.00;;
8232;SDS011;4157;48.074;9.952;2023-02-23T14:31:53;8.50;;;4.85;;
8232;SDS011;4157;48.074;9.952;2023-02-23T14:34:21;11.10;;;4.88;;
8232;SDS011;4157;48.074;9.952;2023-02-23T14:36:49;12.82;;;5.20;;
8232;SDS011;4157;48.074;9.952;2023-02-23T14:39:22;10.85;;;4.88;;
8232;SDS011;4157;48.074;9.952;2023-02-23T14:41:53;9.75;;;5.20;;
8232;SDS011;4157;48.074;9.952;2023-02-23T14:44:23;25.88;;;17.75;;
8232;SDS011;4157;48.074;9.952;2023-02-23T14:46:53;12.40;;;6.20;;
8232;SDS011;4157;48.074;9.952;2023-02-23T14:49:22;15.70;;;5.97;;
8232;SDS011;4157;48.074;9.952;2023-02-23T14:51:52;11.07;;;6.60;;
8232;SDS011;4157;48.074;9.952;2023-02-23T14:54:24;13.40;;;5.90;;
8232;SDS011;4157;48.074;9.952;2023-02-23T14:56:54;13.50;;;4.93;;
8232;SDS011;4157;48.074;9.952;2023-02-23T14:59:23;10.30;;;5.38;;
8232;SDS011;4157;48.074;9.952;2023-02-23T15:01:52;14.18;;;5.10;;
8232;SDS011;4157;48.074;9.952;2023-02-23T15:04:22;13.65;;;5.40;;
8232;SDS011;4157;48.074;9.952;2023-02-23T15:06:51;8.25;;;5.07;;
8232;SDS011;4157;48.074;9.952;2023-02-23T15:09:21;11.85;;;5.72;;
8232;SDS011;4157;48.074;9.952;2023-02-23T15:11:51;16.42;;;5.95;;
8232;SDS011;4157;48.074;9.952;2023-02-23T15:14:21;10.20;;;5.55;;
8232;SDS011;4157;48.074;9.952;2023-02-23T15:16:50;9.98;;;5.55;;
8232;SDS011;4157;48.074;9.952;2023-02-23T15:19:30;9.77;;;4.70;;
8232;SDS011;4157;48.074;9.952;2023-02-23T15:22:00;12.35;;;5.88;;
8232;SDS011;4157;48.074;9.952;2023-02-23T15:24:30;10.05;;;5.32;;
8232;SDS011;4157;48.074;9.952;2023-02-23T15:26:58;12.10;;;5.38;;
8232;SDS011;4157;48.074;9.952;2023-02-23T15:29:31;14.88;;;5.53;;
8232;SDS011;4157;48.074;9.952;2023-02-23T15:32:09;11.40;;;5.80;;